Time;durP1;ratioP1;P1;durP2;ratioP2;P2;SDS_P1;SDS_P2;PMS_P1;PMS_P2;Temp;Humidity;BMP_temperature;BMP_pressure;BME280_temperature;BME280_humidity;BME280_pressure;Samples;Min_cycle;Max_cycle;Signal;HPM_P1;HPM_P2
2023/12/20 00:02:17;;;;;;;20.42;3.17;;;8.70;99.90;;;;;;5150306;27;20262;-47
2023/12/20 00:04:43;;;;;;;15.25;3.00;;;8.70;99.90;;;;;;5149626;27;20015;-49
2023/12/20 00:07:08;;;;;;;14.82;2.83;;;8.70;99.90;;;;;;5148070;27;20042;-51
2023/12/20 00:09:34;;;;;;;13.63;2.70;;;8.70;99.90;;;;;;5149533;27;20095;-47
2023/12/20 00:12:00;;;;;;;14.25;2.28;;;8.70;99.90;;;;;;5149533;27;20081;-48
2023/12/20 00:14:25;;;;;;;14.57;2.95;;;8.60;99.90;;;;;;5131122;27;20035;-50
2023/12/20 00:16:51;;;;;;;20.83;2.72;;;8.60;99.90;;;;;;5149236;27;20354;-50
2023/12/20 00:19:17;;;;;;;16.52;2.67;;;8.60;99.90;;;;;;5149092;27;20208;-50
2023/12/20 00:21:42;;;;;;;15.18;2.70;;;8.60;99.90;;;;;;5147732;27;20268;-50
2023/12/20 00:24:08;;;;;;;17.17;2.80;;;8.60;99.90;;;;;;5149303;27;20119;-50
2023/12/20 00:26:34;;;;;;;15.40;3.17;;;8.60;99.90;;;;;;5149169;27;20019;-50
2023/12/20 00:28:59;;;;;;;15.27;2.65;;;8.60;99.90;;;;;;5149049;27;20153;-50
2023/12/20 00:31:25;;;;;;;13.95;2.83;;;8.50;99.90;;;;;;5148902;27;20118;-50
2023/12/20 00:33:51;;;;;;;12.27;2.38;;;8.50;99.90;;;;;;5149033;27;20257;-47
2023/12/20 00:36:16;;;;;;;14.88;3.08;;;8.50;99.90;;;;;;5149255;27;20246;-49
2023/12/20 00:38:42;;;;;;;13.30;2.50;;;8.40;99.90;;;;;;5148938;27;20027;-50
2023/12/20 00:41:08;;;;;;;20.50;3.00;;;8.40;99.90;;;;;;5148715;27;20038;-49
2023/12/20 00:43:33;;;;;;;14.48;2.95;;;8.40;99.90;;;;;;5148655;27;20027;-51
2023/12/20 00:46:00;;;;;;;21.80;3.13;;;8.40;99.90;;;;;;5148767;27;20046;-46
2023/12/20 00:48:30;;;;;;;15.95;2.50;;;8.40;99.90;;;;;;5148746;27;20277;-45
2023/12/20 00:50:56;;;;;;;13.23;3.17;;;8.50;99.90;;;;;;5148437;27;20038;-47
2023/12/20 00:53:21;;;;;;;12.80;2.45;;;8.60;99.90;;;;;;5147485;27;20255;-46
2023/12/20 00:55:47;;;;;;;11.45;2.20;;;8.60;99.90;;;;;;5130194;27;20067;-46
2023/12/20 00:58:15;;;;;;;23.20;3.42;;;8.60;99.90;;;;;;5148632;27;20031;-48
2023/12/20 01:00:42;;;;;;;13.43;2.80;;;8.70;99.90;;;;;;5148538;27;20087;-46
2023/12/20 01:03:07;;;;;;;13.85;2.55;;;8.70;99.90;;;;;;5148415;27;20080;-46
2023/12/20 01:05:33;;;;;;;15.50;2.72;;;8.80;99.90;;;;;;5148325;27;20094;-48
2023/12/20 01:07:59;;;;;;;16.05;3.15;;;8.90;99.90;;;;;;5147942;27;20051;-46
2023/12/20 01:10:27;;;;;;;18.20;2.83;;;8.90;99.90;;;;;;5147850;27;20029;-46
2023/12/20 01:12:53;;;;;;;14.25;2.92;;;9.00;99.90;;;;;;5147876;27;20242;-46
2023/12/20 01:15:19;;;;;;;19.90;3.50;;;9.00;99.90;;;;;;5148209;27;20035;-46
2023/12/20 01:17:45;;;;;;;14.93;2.70;;;9.00;99.90;;;;;;5148075;27;20061;-47
2023/12/20 01:20:10;;;;;;;15.57;2.70;;;9.00;99.90;;;;;;5148207;27;20030;-46
2023/12/20 01:22:36;;;;;;;14.07;2.42;;;9.00;99.90;;;;;;5148053;27;20070;-46
2023/12/20 01:25:02;;;;;;;15.82;2.17;;;9.00;99.90;;;;;;5147966;27;20023;-46
2023/12/20 01:27:28;;;;;;;15.38;3.45;;;8.90;99.90;;;;;;5146949;27;20027;-46
2023/12/20 01:29:54;;;;;;;16.35;2.70;;;9.00;99.90;;;;;;5147689;27;20027;-46
2023/12/20 01:32:20;;;;;;;16.20;2.83;;;9.00;99.90;;;;;;5147587;27;20273;-46
2023/12/20 01:34:46;;;;;;;17.50;3.40;;;9.10;99.90;;;;;;5147485;27;20028;-46
2023/12/20 01:37:11;;;;;;;21.00;2.95;;;9.10;99.90;;;;;;5147506;27;20027;-46
2023/12/20 01:39:37;;;;;;;16.10;2.85;;;9.20;99.90;;;;;;5147568;27;20034;-46
2023/12/20 01:42:03;;;;;;;11.57;2.38;;;9.20;99.90;;;;;;5147181;27;20031;-46
2023/12/20 01:44:29;;;;;;;12.20;1.92;;;9.30;99.90;;;;;;5146397;27;20038;-46
2023/12/20 01:46:54;;;;;;;13.90;2.40;;;9.30;99.90;;;;;;5129290;27;20284;-46
2023/12/20 01:49:20;;;;;;;13.25;2.85;;;9.30;99.90;;;;;;5129281;27;20023;-46
2023/12/20 01:51:46;;;;;;;21.27;3.05;;;9.30;99.90;;;;;;5147415;27;20023;-46
2023/12/20 01:54:11;;;;;;;11.35;2.42;;;9.30;99.90;;;;;;5146487;27;20035;-46
2023/12/20 01:56:37;;;;;;;14.18;2.72;;;9.20;99.90;;;;;;5147492;27;20038;-46
2023/12/20 01:59:04;;;;;;;14.30;2.38;;;9.30;99.90;;;;;;5147140;27;20102;-46
2023/12/20 02:01:29;;;;;;;8.65;2.03;;;9.30;99.90;;;;;;5147227;27;20037;-46
2023/12/20 02:03:55;;;;;;;14.15;2.20;;;9.30;99.90;;;;;;5146262;27;20078;-46
2023/12/20 02:06:22;;;;;;;16.10;2.92;;;9.30;99.90;;;;;;5146295;27;20280;-46
2023/12/20 02:08:48;;;;;;;15.32;2.30;;;9.40;99.90;;;;;;5146703;27;20066;-49
2023/12/20 02:11:14;;;;;;;14.25;2.30;;;9.40;99.90;;;;;;5146213;27;20023;-48
2023/12/20 02:13:40;;;;;;;14.57;2.33;;;9.30;99.90;;;;;;5146684;27;20091;-46
2023/12/20 02:16:07;;;;;;;14.05;2.63;;;9.30;99.90;;;;;;5147221;27;20289;-46
2023/12/20 02:18:33;;;;;;;20.80;2.90;;;9.30;99.90;;;;;;5146591;27;20289;-46
2023/12/20 02:20:58;;;;;;;20.23;4.38;;;9.20;99.90;;;;;;5145817;27;20061;-49
2023/12/20 02:23:24;;;;;;;12.73;2.50;;;9.20;99.90;;;;;;5146821;27;20053;-52
2023/12/20 02:25:50;;;;;;;10.77;2.10;;;9.20;99.90;;;;;;5146911;27;20023;-50
2023/12/20 02:28:16;;;;;;;19.63;2.88;;;9.20;99.90;;;;;;5146977;27;20231;-50
2023/12/20 02:30:41;;;;;;;15.32;3.17;;;9.20;99.90;;;;;;5146844;27;20034;-50
2023/12/20 02:33:11;;;;;;;20.50;2.53;;;9.20;99.90;;;;;;5146873;27;20031;-49
2023/12/20 02:35:37;;;;;;;18.15;3.22;;;9.10;99.90;;;;;;5145966;27;20303;-50
2023/12/20 02:38:03;;;;;;;17.63;2.85;;;9.10;99.90;;;;;;5146852;27;20090;-50
2023/12/20 02:40:28;;;;;;;13.32;2.53;;;9.10;99.90;;;;;;5146794;28;20027;-48
2023/12/20 02:42:54;;;;;;;18.13;3.00;;;9.10;99.90;;;;;;5146112;27;20031;-49
2023/12/20 02:45:20;;;;;;;12.50;2.40;;;9.20;99.90;;;;;;5146033;28;20087;-49
2023/12/20 02:47:45;;;;;;;24.25;3.40;;;9.20;99.90;;;;;;5145673;28;20023;-49
2023/12/20 02:50:11;;;;;;;14.20;2.60;;;9.30;99.90;;;;;;5146749;28;20031;-46
2023/12/20 02:52:36;;;;;;;13.60;3.00;;;9.30;99.90;;;;;;5146720;28;20161;-47
2023/12/20 02:55:02;;;;;;;14.75;3.00;;;9.40;99.90;;;;;;5146613;28;20031;-46
2023/12/20 02:57:28;;;;;;;13.38;2.40;;;9.40;99.90;;;;;;5146650;27;20277;-46
2023/12/20 02:59:54;;;;;;;14.85;3.25;;;9.40;99.90;;;;;;5146766;28;20027;-47
2023/12/20 03:02:19;;;;;;;12.18;2.53;;;9.40;99.90;;;;;;5146546;28;20115;-50
2023/12/20 03:04:45;;;;;;;12.52;3.15;;;9.40;99.90;;;;;;5146225;28;20039;-50
2023/12/20 03:07:12;;;;;;;17.00;3.60;;;9.40;99.90;;;;;;5145395;28;20023;-50
2023/12/20 03:09:37;;;;;;;13.88;2.35;;;9.50;99.90;;;;;;5146426;28;20026;-49
2023/12/20 03:12:04;;;;;;;12.10;2.38;;;9.50;99.90;;;;;;5146509;28;20059;-49
2023/12/20 03:14:29;;;;;;;19.65;2.58;;;9.50;99.90;;;;;;5146534;28;20019;-50
2023/12/20 03:16:55;;;;;;;12.90;2.42;;;9.60;99.90;;;;;;5146001;28;20039;-50
2023/12/20 03:19:21;;;;;;;15.55;3.05;;;9.50;99.90;;;;;;5146415;28;20034;-49
2023/12/20 03:21:46;;;;;;;12.15;2.05;;;9.50;99.90;;;;;;5145205;28;20193;-50
2023/12/20 03:24:12;;;;;;;16.38;2.22;;;9.60;99.90;;;;;;5146663;28;20031;-49
2023/12/20 03:26:38;;;;;;;13.45;2.28;;;9.60;99.90;;;;;;5146410;28;20057;-47
2023/12/20 03:29:04;;;;;;;11.57;2.25;;;9.60;99.90;;;;;;5146269;28;20072;-48
2023/12/20 03:31:29;;;;;;;13.52;2.33;;;9.60;99.90;;;;;;5145174;28;20061;-50
2023/12/20 03:33:55;;;;;;;11.00;2.50;;;9.60;99.90;;;;;;5146186;28;20115;-48
2023/12/20 03:36:21;;;;;;;14.25;2.45;;;9.60;99.90;;;;;;5145784;28;20027;-50
2023/12/20 03:38:46;;;;;;;8.70;1.90;;;9.60;99.90;;;;;;5145923;28;20054;-49
2023/12/20 03:41:13;;;;;;;19.23;2.67;;;9.70;99.90;;;;;;5146285;28;20042;-49
2023/12/20 03:43:38;;;;;;;12.15;2.55;;;9.70;99.90;;;;;;5146068;28;20030;-49
2023/12/20 03:46:04;;;;;;;15.48;2.63;;;9.70;99.90;;;;;;5146138;28;20023;-49
2023/12/20 03:48:31;;;;;;;12.07;2.13;;;9.60;99.90;;;;;;5146149;28;20042;-46
2023/12/20 03:50:57;;;;;;;9.85;2.90;;;9.60;99.90;;;;;;5145808;28;20023;-47
2023/12/20 03:53:22;;;;;;;13.45;3.33;;;9.60;99.90;;;;;;5146034;28;20034;-48
2023/12/20 03:55:48;;;;;;;11.55;2.15;;;9.60;99.90;;;;;;5148287;27;20276;-50
2023/12/20 03:58:14;;;;;;;9.57;1.92;;;9.60;99.90;;;;;;5148958;27;20019;-49
2023/12/20 04:00:39;;;;;;;10.90;2.05;;;9.50;99.90;;;;;;5149161;27;20023;-49
2023/12/20 04:03:05;;;;;;;20.63;3.50;;;9.50;99.90;;;;;;5149558;27;20102;-49
2023/12/20 04:05:31;;;;;;;13.38;2.10;;;9.50;99.90;;;;;;5149754;27;20023;-49
2023/12/20 04:07:56;;;;;;;15.07;2.45;;;9.50;99.90;;;;;;5149253;27;20047;-49
2023/12/20 04:10:22;;;;;;;16.70;2.30;;;9.40;99.90;;;;;;5149525;27;20027;-50
2023/12/20 04:12:48;;;;;;;14.30;2.40;;;9.50;99.90;;;;;;5149502;27;20256;-50
2023/12/20 04:15:13;;;;;;;18.15;2.08;;;9.50;99.90;;;;;;5149075;27;20023;-50
2023/12/20 04:17:39;;;;;;;8.88;2.10;;;9.50;99.90;;;;;;5148118;27;20061;-50
2023/12/20 04:20:05;;;;;;;14.55;2.10;;;9.50;99.90;;;;;;5149534;27;20030;-50
2023/12/20 04:22:31;;;;;;;14.05;2.20;;;9.50;99.90;;;;;;5149222;27;20082;-50
2023/12/20 04:24:57;;;;;;;11.13;1.90;;;9.50;99.90;;;;;;5148504;27;20035;-50
2023/12/20 04:27:22;;;;;;;15.60;2.58;;;9.60;99.90;;;;;;5149102;27;20076;-50
2023/12/20 04:29:48;;;;;;;8.25;3.03;;;9.60;99.90;;;;;;5148965;27;20079;-49
2023/12/20 04:32:14;;;;;;;19.38;2.45;;;9.70;99.90;;;;;;5149079;27;20053;-51
2023/12/20 04:34:39;;;;;;;10.35;2.00;;;9.70;99.90;;;;;;5148628;27;20264;-50
2023/12/20 04:37:05;;;;;;;12.45;2.47;;;9.70;99.90;;;;;;5147896;27;20037;-50
2023/12/20 04:39:31;;;;;;;10.70;1.80;;;9.80;99.90;;;;;;5148878;27;20027;-50
2023/12/20 04:41:56;;;;;;;9.85;1.77;;;9.80;99.90;;;;;;5147878;27;20051;-50
2023/12/20 04:44:22;;;;;;;12.02;2.20;;;9.80;99.90;;;;;;5148870;27;20015;-50
2023/12/20 04:46:48;;;;;;;11.65;2.15;;;9.80;99.90;;;;;;5148491;27;20073;-48
2023/12/20 04:49:13;;;;;;;7.47;1.80;;;9.80;99.90;;;;;;5130592;27;20148;-50
2023/12/20 04:51:39;;;;;;;13.98;1.98;;;9.90;99.90;;;;;;5147636;27;20027;-47
2023/12/20 04:54:05;;;;;;;13.38;2.05;;;9.90;99.90;;;;;;5148764;27;20083;-50
2023/12/20 04:56:30;;;;;;;13.05;1.95;;;9.90;99.90;;;;;;5148610;27;20038;-50
2023/12/20 04:58:56;;;;;;;9.60;2.00;;;9.90;99.90;;;;;;5148289;27;20207;-50
2023/12/20 05:01:22;;;;;;;8.73;2.00;;;9.90;99.90;;;;;;5148332;27;20211;-50
2023/12/20 05:03:47;;;;;;;6.15;1.55;;;9.80;99.90;;;;;;5130238;27;20062;-51
2023/12/20 05:06:13;;;;;;;12.82;1.98;;;9.90;99.90;;;;;;5147948;27;20054;-49
2023/12/20 05:08:39;;;;;;;8.18;1.80;;;9.90;99.90;;;;;;5147852;27;20062;-47
2023/12/20 05:11:04;;;;;;;14.48;2.20;;;9.90;99.90;;;;;;5147920;27;20095;-48
2023/12/20 05:13:30;;;;;;;14.35;2.25;;;9.90;99.90;;;;;;5147203;27;20273;-50
2023/12/20 05:15:56;;;;;;;11.07;1.70;;;9.90;99.90;;;;;;5148217;27;20324;-51
2023/12/20 05:18:22;;;;;;;10.68;1.83;;;9.90;99.90;;;;;;5148201;27;20285;-50
2023/12/20 05:20:49;;;;;;;14.18;2.08;;;10.00;99.90;;;;;;5147690;27;20033;-47
2023/12/20 05:23:15;;;;;;;17.02;2.17;;;10.00;99.90;;;;;;5112907;27;20027;-50
2023/12/20 05:25:40;;;;;;;7.97;1.60;;;10.00;99.90;;;;;;5147940;27;20353;-50
2023/12/20 05:28:06;;;;;;;9.18;1.70;;;10.00;99.90;;;;;;5147194;27;20023;-51
2023/12/20 05:30:31;;;;;;;7.55;1.50;;;10.00;99.90;;;;;;5147041;27;20023;-51
2023/12/20 05:32:57;;;;;;;10.57;1.70;;;10.00;99.90;;;;;;5148033;27;20099;-50
2023/12/20 05:35:23;;;;;;;10.80;1.90;;;10.00;99.90;;;;;;5147661;27;20185;-49
2023/12/20 05:37:49;;;;;;;13.75;1.90;;;9.90;99.90;;;;;;5147767;27;20192;-50
2023/12/20 05:40:15;;;;;;;13.93;2.15;;;9.90;99.90;;;;;;5147746;27;20035;-50
2023/12/20 05:42:41;;;;;;;11.82;1.90;;;9.90;99.90;;;;;;5147459;27;20030;-50
2023/12/20 05:45:06;;;;;;;8.07;2.17;;;9.90;99.90;;;;;;5147573;27;20047;-50
2023/12/20 05:47:32;;;;;;;11.82;1.80;;;9.90;99.90;;;;;;5147412;27;20269;-50
2023/12/20 05:49:58;;;;;;;11.52;2.22;;;9.90;99.90;;;;;;5146519;27;20184;-47
2023/12/20 05:52:24;;;;;;;9.15;1.77;;;9.90;99.90;;;;;;5147600;27;20211;-47
2023/12/20 05:54:49;;;;;;;8.75;2.10;;;9.80;99.90;;;;;;5146437;27;20062;-47
2023/12/20 05:57:15;;;;;;;9.23;1.63;;;9.70;99.90;;;;;;5147198;27;20031;-48
2023/12/20 05:59:41;;;;;;;5.55;1.52;;;9.70;99.90;;;;;;5146382;27;20061;-47
2023/12/20 06:02:06;;;;;;;14.40;6.40;;;9.60;99.90;;;;;;5147304;27;20038;-49
2023/12/20 06:04:32;;;;;;;14.40;2.75;;;9.60;99.90;;;;;;5147368;27;20027;-50
2023/12/20 06:06:58;;;;;;;9.52;1.55;;;9.60;99.90;;;;;;5146902;27;20042;-49
2023/12/20 06:09:24;;;;;;;10.55;1.65;;;9.70;99.90;;;;;;5128874;27;20041;-50
2023/12/20 06:11:50;;;;;;;13.02;1.90;;;9.70;99.90;;;;;;5145990;27;20034;-49
2023/12/20 06:14:16;;;;;;;9.10;1.88;;;9.70;99.90;;;;;;5147352;27;20285;-50
2023/12/20 06:16:41;;;;;;;12.00;1.80;;;9.80;99.90;;;;;;5147152;27;20134;-50
2023/12/20 06:19:07;;;;;;;10.02;1.92;;;9.80;99.90;;;;;;5144969;27;20023;-50
2023/12/20 06:21:33;;;;;;;12.07;2.08;;;9.80;99.90;;;;;;5146979;27;20034;-50
2023/12/20 06:23:59;;;;;;;8.38;2.05;;;9.90;99.90;;;;;;5145921;27;20050;-51
2023/12/20 06:26:25;;;;;;;8.23;2.22;;;9.90;99.90;;;;;;5146918;27;20022;-47
2023/12/20 06:28:50;;;;;;;13.20;2.22;;;9.90;99.90;;;;;;5146705;27;20023;-50
2023/12/20 06:31:16;;;;;;;11.30;2.53;;;9.90;99.90;;;;;;5146998;27;20149;-49
2023/12/20 06:33:43;;;;;;;11.57;2.20;;;9.90;99.90;;;;;;5146673;27;20023;-50
2023/12/20 06:36:12;;;;;;;8.93;1.70;;;9.90;99.90;;;;;;5146852;27;20090;-48
2023/12/20 06:38:37;;;;;;;11.38;1.50;;;9.90;99.90;;;;;;5146858;27;20031;-50
2023/12/20 06:41:03;;;;;;;10.70;2.20;;;9.90;99.90;;;;;;5146497;27;20292;-50
2023/12/20 06:43:30;;;;;;;14.02;1.90;;;9.90;99.90;;;;;;5146856;27;20288;-50
2023/12/20 06:45:55;;;;;;;8.02;1.55;;;9.90;99.90;;;;;;5146633;28;20054;-51
2023/12/20 06:48:21;;;;;;;11.85;1.80;;;10.00;99.90;;;;;;5146599;28;20023;-48
2023/12/20 06:50:47;;;;;;;13.85;1.88;;;10.00;99.90;;;;;;5146339;28;20027;-50
2023/12/20 06:53:12;;;;;;;9.32;1.95;;;10.00;99.90;;;;;;5146355;28;20023;-47
2023/12/20 06:55:38;;;;;;;7.82;1.92;;;10.00;99.90;;;;;;5145418;28;20023;-46
2023/12/20 06:58:04;;;;;;;7.43;1.40;;;10.00;99.90;;;;;;5146464;28;20083;-47
2023/12/20 07:00:30;;;;;;;6.38;1.65;;;9.90;99.90;;;;;;5146054;28;20031;-47
2023/12/20 07:02:56;;;;;;;9.27;2.13;;;9.90;99.90;;;;;;5146521;28;20091;-48
2023/12/20 07:05:22;;;;;;;5.25;1.30;;;9.90;99.90;;;;;;5146398;28;20248;-50
2023/12/20 07:07:47;;;;;;;9.88;1.30;;;9.90;99.90;;;;;;5145177;28;20053;-49
2023/12/20 07:10:13;;;;;;;10.60;1.95;;;9.90;99.90;;;;;;5145491;28;20076;-47
2023/12/20 07:12:39;;;;;;;7.38;1.80;;;9.90;99.90;;;;;;5146493;28;20158;-49
2023/12/20 07:15:08;;;;;;;8.93;1.60;;;9.90;99.90;;;;;;5146587;28;20053;-47
2023/12/20 07:17:34;;;;;;;9.70;1.85;;;9.90;99.90;;;;;;5146229;28;20023;-46
2023/12/20 07:20:03;;;;;;;8.48;1.90;;;9.90;99.90;;;;;;5146473;28;20027;-49
2023/12/20 07:22:31;;;;;;;7.25;1.45;;;9.90;99.90;;;;;;5146256;27;20035;-47
2023/12/20 07:24:57;;;;;;;6.47;1.60;;;9.90;99.90;;;;;;5146256;28;20275;-46
2023/12/20 07:27:23;;;;;;;11.50;1.55;;;9.90;99.90;;;;;;5146212;28;20023;-50
2023/12/20 07:29:49;;;;;;;9.80;1.98;;;9.90;99.90;;;;;;5147021;27;20042;-47
2023/12/20 07:32:15;;;;;;;9.55;1.80;;;9.90;99.90;;;;;;5148851;27;20038;-47
2023/12/20 07:34:40;;;;;;;8.57;2.13;;;9.90;99.90;;;;;;5150174;27;20035;-47
2023/12/20 07:37:06;;;;;;;8.00;1.42;;;9.90;99.90;;;;;;5149944;27;20042;-50
2023/12/20 07:39:31;;;;;;;8.82;1.60;;;9.80;99.90;;;;;;5150052;27;20273;-49
2023/12/20 07:41:57;;;;;;;6.63;1.83;;;9.90;99.90;;;;;;5149725;27;20090;-48
2023/12/20 07:44:23;;;;;;;13.45;2.13;;;9.90;99.90;;;;;;5150291;27;20027;-47
2023/12/20 07:46:48;;;;;;;7.30;1.45;;;9.90;99.90;;;;;;5149490;27;20023;-49
2023/12/20 07:49:14;;;;;;;10.73;2.38;;;9.90;99.90;;;;;;5149652;27;20018;-49
2023/12/20 07:51:40;;;;;;;10.73;1.90;;;9.90;99.90;;;;;;5149538;27;20063;-47
2023/12/20 07:54:07;;;;;;;13.55;1.92;;;9.90;99.90;;;;;;5148564;27;20031;-49
2023/12/20 07:56:33;;;;;;;9.35;1.60;;;9.90;99.90;;;;;;5149682;27;20026;-47
2023/12/20 07:58:59;;;;;;;10.75;2.03;;;9.90;99.90;;;;;;5149625;27;20048;-50
2023/12/20 08:01:25;;;;;;;8.77;1.85;;;9.90;99.90;;;;;;5149610;27;20187;-49
2023/12/20 08:03:50;;;;;;;11.52;1.85;;;9.90;99.90;;;;;;5149175;27;20026;-52
2023/12/20 08:06:17;;;;;;;12.80;2.38;;;10.00;99.90;;;;;;5149502;27;20037;-46
2023/12/20 08:08:43;;;;;;;12.07;1.73;;;9.90;99.90;;;;;;5149075;27;20047;-49
2023/12/20 08:11:08;;;;;;;7.78;1.95;;;10.00;99.90;;;;;;5149673;27;20038;-48
2023/12/20 08:13:34;;;;;;;7.13;1.60;;;10.00;99.90;;;;;;5149357;27;20023;-47
2023/12/20 08:16:02;;;;;;;13.65;2.35;;;10.00;99.90;;;;;;5148036;27;20154;-47
2023/12/20 08:18:28;;;;;;;8.43;1.67;;;10.10;99.90;;;;;;5149207;27;20027;-47
2023/12/20 08:20:53;;;;;;;10.85;1.90;;;10.10;99.90;;;;;;5149010;27;20027;-50
2023/12/20 08:23:20;;;;;;;11.63;1.92;;;10.00;99.90;;;;;;5149060;27;20269;-47
2023/12/20 08:25:46;;;;;;;13.18;1.80;;;10.00;99.90;;;;;;5148007;27;20019;-49
2023/12/20 08:28:12;;;;;;;8.65;1.83;;;10.10;99.90;;;;;;5149060;27;20042;-47
2023/12/20 08:30:38;;;;;;;8.20;1.50;;;10.10;99.90;;;;;;5148973;27;20026;-50
2023/12/20 08:33:04;;;;;;;6.95;1.88;;;10.10;99.90;;;;;;5148531;27;20042;-50
2023/12/20 08:35:30;;;;;;;4.07;2.00;;;10.10;99.90;;;;;;5148280;27;20031;-50
2023/12/20 08:37:56;;;;;;;6.07;1.50;;;10.10;99.90;;;;;;5148854;27;20344;-47
2023/12/20 08:40:21;;;;;;;8.40;1.92;;;10.10;99.90;;;;;;5148648;27;20026;-48
2023/12/20 08:42:47;;;;;;;8.38;2.08;;;10.10;99.90;;;;;;5147119;27;20042;-46
2023/12/20 08:45:13;;;;;;;10.95;1.80;;;10.10;99.90;;;;;;5148196;27;20289;-50
2023/12/20 08:47:40;;;;;;;7.45;1.67;;;10.10;99.90;;;;;;5148268;27;20223;-50
2023/12/20 08:50:07;;;;;;;11.30;2.00;;;10.20;99.90;;;;;;5148297;27;20343;-47
2023/12/20 08:52:33;;;;;;;7.13;1.60;;;10.20;99.90;;;;;;5147741;27;20193;-49
2023/12/20 08:54:58;;;;;;;8.65;1.90;;;10.20;99.90;;;;;;5148481;27;20072;-50
2023/12/20 08:57:25;;;;;;;12.57;1.85;;;10.20;99.90;;;;;;5148151;27;20026;-49
2023/12/20 08:59:50;;;;;;;8.98;2.10;;;10.30;99.90;;;;;;5147333;27;20144;-49
2023/12/20 09:02:16;;;;;;;14.88;2.30;;;10.30;99.90;;;;;;5130012;27;20284;-48
2023/12/20 09:04:42;;;;;;;9.88;1.95;;;10.30;99.90;;;;;;5148149;27;20064;-49
2023/12/20 09:07:24;;;;;;;14.52;2.10;;;10.30;99.90;;;;;;5147490;27;20019;-49
2023/12/20 09:09:50;;;;;;;9.13;1.83;;;10.30;99.90;;;;;;5148013;27;20031;-48
2023/12/20 09:12:16;;;;;;;11.95;2.10;;;10.40;99.90;;;;;;5147129;27;20180;-48
2023/12/20 09:14:42;;;;;;;11.95;2.10;;;10.40;99.90;;;;;;5148132;27;20031;-48
2023/12/20 09:17:08;;;;;;;13.70;2.20;;;10.40;99.90;;;;;;5148135;27;20383;-48
2023/12/20 09:19:34;;;;;;;11.63;1.58;;;10.40;99.90;;;;;;5146885;27;20098;-48
2023/12/20 09:22:00;;;;;;;11.40;2.65;;;10.50;99.90;;;;;;5146539;27;20040;-48
2023/12/20 09:24:26;;;;;;;13.20;2.40;;;10.50;99.90;;;;;;5147552;27;20042;-47
2023/12/20 09:26:52;;;;;;;11.02;1.63;;;10.50;99.90;;;;;;5147573;27;20019;-47
2023/12/20 09:29:18;;;;;;;15.57;2.70;;;10.50;99.90;;;;;;5146549;27;20027;-48
2023/12/20 09:31:46;;;;;;;8.05;2.03;;;10.50;99.90;;;;;;5146074;27;20084;-48
2023/12/20 09:34:12;;;;;;;11.45;2.25;;;10.50;99.90;;;;;;5147312;27;20322;-47
2023/12/20 09:36:40;;;;;;;14.00;2.63;;;10.50;99.90;;;;;;5147581;27;20086;-47
2023/12/20 09:39:06;;;;;;;14.63;2.22;;;10.50;99.90;;;;;;5147285;27;20035;-47
2023/12/20 09:41:32;;;;;;;6.95;1.88;;;10.60;99.90;;;;;;5147164;27;20094;-47
2023/12/20 09:43:58;;;;;;;8.73;1.60;;;10.60;99.90;;;;;;5147090;27;20076;-47
2023/12/20 09:46:24;;;;;;;7.10;1.83;;;10.60;99.90;;;;;;5129171;27;20043;-47
2023/12/20 09:48:50;;;;;;;8.10;1.83;;;10.60;99.90;;;;;;5145916;27;20072;-47
2023/12/20 09:51:16;;;;;;;9.45;1.98;;;10.60;99.90;;;;;;5145835;27;20038;-47
2023/12/20 09:53:41;;;;;;;10.95;1.88;;;10.70;99.90;;;;;;5145548;27;20122;-47
2023/12/20 09:56:07;;;;;;;9.18;1.85;;;10.70;99.90;;;;;;5128744;27;20023;-47
2023/12/20 09:58:35;;;;;;;8.07;1.55;;;10.70;99.90;;;;;;5145936;27;20083;-47
2023/12/20 10:01:01;;;;;;;14.70;2.15;;;10.70;99.90;;;;;;5129135;27;20038;-47
2023/12/20 10:03:27;;;;;;;8.38;2.03;;;10.70;99.90;;;;;;5147097;27;20023;-47
2023/12/20 10:05:54;;;;;;;10.95;2.17;;;10.80;99.90;;;;;;5146907;27;20084;-47
2023/12/20 10:08:21;;;;;;;10.77;2.10;;;10.80;99.90;;;;;;5145851;27;20050;-47
2023/12/20 10:10:47;;;;;;;12.73;2.60;;;10.70;99.90;;;;;;5146893;27;20281;-46
2023/12/20 10:13:13;;;;;;;11.15;2.70;;;10.80;99.90;;;;;;5145840;27;20031;-46
2023/12/20 10:15:39;;;;;;;12.57;2.72;;;10.80;99.90;;;;;;5146935;27;20059;-46
2023/12/20 10:18:05;;;;;;;11.20;2.80;;;10.80;99.90;;;;;;5146731;27;20031;-47
2023/12/20 10:20:31;;;;;;;16.45;2.75;;;10.80;99.90;;;;;;5146697;27;20039;-47
2023/12/20 10:23:00;;;;;;;16.13;2.95;;;10.90;99.90;;;;;;5146634;27;20244;-47
2023/12/20 10:25:26;;;;;;;17.05;2.72;;;10.90;99.90;;;;;;5146686;27;20173;-46
2023/12/20 10:28:12;;;;;;;17.40;2.92;;;10.80;99.90;;;;;;5145487;27;20031;-47
2023/12/20 10:30:38;;;;;;;11.98;2.50;;;10.90;99.90;;;;;;5145473;27;20023;-47
2023/12/20 10:33:06;;;;;;;17.88;3.08;;;10.90;99.90;;;;;;5146494;27;20038;-47
2023/12/20 10:35:32;;;;;;;12.05;2.88;;;10.90;99.90;;;;;;5146741;27;20196;-50
2023/12/20 10:37:58;;;;;;;12.20;2.85;;;10.90;99.90;;;;;;5145551;27;20031;-50
2023/12/20 10:40:23;;;;;;;13.15;3.25;;;10.90;99.90;;;;;;5146667;27;20042;-47
2023/12/20 10:42:50;;;;;;;20.92;3.53;;;10.90;99.90;;;;;;5145116;27;20223;-49
2023/12/20 10:45:16;;;;;;;15.27;3.30;;;11.00;99.90;;;;;;5145256;27;20273;-48
2023/12/20 10:47:43;;;;;;;17.90;3.10;;;11.00;99.90;;;;;;5145216;28;20061;-49
2023/12/20 10:50:08;;;;;;;13.82;2.95;;;11.00;99.90;;;;;;5128429;28;20094;-48
2023/12/20 10:52:34;;;;;;;14.60;2.78;;;11.00;99.90;;;;;;5145250;28;20039;-48
2023/12/20 10:55:00;;;;;;;15.50;3.25;;;11.00;99.90;;;;;;5145021;28;20031;-48
2023/12/20 10:57:26;;;;;;;11.70;2.80;;;11.00;99.90;;;;;;5146151;28;20071;-49
2023/12/20 10:59:53;;;;;;;15.68;3.05;;;11.00;99.90;;;;;;5145282;28;20042;-50
2023/12/20 11:02:18;;;;;;;13.75;2.40;;;11.10;99.90;;;;;;5145277;28;20058;-51
2023/12/20 11:04:55;;;;;;;30.30;9.77;;;11.00;99.90;;;;;;5146997;27;20265;-51
2023/12/20 11:07:33;;;;;;;15.90;2.70;;;11.00;99.90;;;;;;5150160;27;20047;-51
2023/12/20 11:10:08;;;;;;;12.07;2.45;;;11.10;99.90;;;;;;5150321;27;20019;-51
2023/12/20 11:13:00;;;;;;;11.07;2.92;;;11.10;99.90;;;;;;5150526;27;20035;-50
2023/12/20 11:15:27;;;;;;;18.08;2.70;;;11.10;99.90;;;;;;5134255;27;20023;-48
2023/12/20 11:17:56;;;;;;;17.95;3.42;;;11.10;99.90;;;;;;5149978;27;20026;-48
2023/12/20 11:20:35;;;;;;;15.13;3.08;;;11.10;99.90;;;;;;5150384;27;20019;-49
2023/12/20 11:23:01;;;;;;;17.63;3.75;;;11.20;99.90;;;;;;5132304;27;20088;-48
2023/12/20 11:25:27;;;;;;;14.77;3.17;;;11.10;99.90;;;;;;5149002;27;20054;-49
2023/12/20 11:28:12;;;;;;;11.73;2.35;;;11.10;99.90;;;;;;5149074;27;20026;-51
2023/12/20 11:30:42;;;;;;;18.23;2.85;;;11.20;99.90;;;;;;5150091;27;20287;-50
2023/12/20 11:33:08;;;;;;;21.42;9.52;;;11.20;99.90;;;;;;5150177;27;20181;-50
2023/12/20 11:35:36;;;;;;;16.08;3.22;;;11.20;99.90;;;;;;5149964;27;20031;-51
2023/12/20 11:38:02;;;;;;;14.77;2.75;;;11.20;99.90;;;;;;5148774;27;20312;-51
2023/12/20 11:40:27;;;;;;;17.95;3.33;;;11.20;99.90;;;;;;5148520;27;20047;-50
2023/12/20 11:42:54;;;;;;;20.30;2.85;;;11.20;99.90;;;;;;5149745;27;20094;-50
2023/12/20 11:45:24;;;;;;;24.67;8.15;;;11.20;99.90;;;;;;5149751;27;20038;-51
2023/12/20 11:47:51;;;;;;;20.58;3.53;;;11.20;99.90;;;;;;5149259;27;20015;-51
2023/12/20 11:50:20;;;;;;;15.43;2.95;;;11.20;99.90;;;;;;5149293;27;20104;-51
2023/12/20 11:52:46;;;;;;;11.83;2.17;;;11.20;99.90;;;;;;5149508;27;20200;-50
2023/12/20 11:55:12;;;;;;;9.68;2.80;;;11.10;99.90;;;;;;5148406;27;20051;-51
2023/12/20 11:57:38;;;;;;;17.48;2.97;;;11.10;99.90;;;;;;5148016;27;20031;-51
2023/12/20 12:00:04;;;;;;;14.15;3.42;;;11.00;99.90;;;;;;5149072;27;20031;-50
2023/12/20 12:02:30;;;;;;;20.17;9.98;;;11.00;99.90;;;;;;5149218;27;20039;-52
2023/12/20 12:04:56;;;;;;;15.00;2.97;;;11.00;99.90;;;;;;5149312;27;20031;-51
2023/12/20 12:07:22;;;;;;;20.27;3.35;;;11.00;99.90;;;;;;5148925;27;20041;-52
2023/12/20 12:09:48;;;;;;;13.50;3.28;;;11.10;99.90;;;;;;5149257;27;20027;-50
2023/12/20 12:12:14;;;;;;;15.32;2.60;;;11.10;99.90;;;;;;5148332;27;20023;-52
2023/12/20 12:14:40;;;;;;;10.88;2.72;;;11.10;99.90;;;;;;5131136;27;20110;-50
2023/12/20 12:17:15;;;;;;;11.43;2.13;;;11.10;99.90;;;;;;5148406;27;20026;-51
2023/12/20 12:19:41;;;;;;;12.80;3.10;;;11.10;99.90;;;;;;5148695;27;20034;-48
2023/12/20 12:22:15;;;;;;;14.60;3.38;;;11.10;99.90;;;;;;5147393;27;20038;-52
2023/12/20 12:24:41;;;;;;;17.60;3.05;;;11.10;99.90;;;;;;5147972;27;20173;-51
2023/12/20 12:27:07;;;;;;;17.35;2.92;;;11.10;99.90;;;;;;5148877;27;20023;-49
2023/12/20 12:29:33;;;;;;;13.93;3.00;;;11.10;99.90;;;;;;5148644;27;20035;-50
2023/12/20 12:31:59;;;;;;;14.63;3.15;;;11.10;99.90;;;;;;5148516;27;20044;-48
2023/12/20 12:34:27;;;;;;;11.77;2.38;;;11.10;99.90;;;;;;5148771;27;20035;-48
2023/12/20 12:36:53;;;;;;;18.08;3.25;;;11.10;99.90;;;;;;5148581;27;20037;-48
2023/12/20 12:39:19;;;;;;;14.63;3.28;;;11.10;99.90;;;;;;5148655;27;20043;-48
2023/12/20 12:41:45;;;;;;;19.73;2.78;;;11.10;99.90;;;;;;5148390;27;20176;-49